Time;durP1;ratioP1;P1;durP2;ratioP2;P2;SDS_P1;SDS_P2;PMS_P1;PMS_P2;Temp;Humidity;BMP_temperature;BMP_pressure;BME280_temperature;BME280_humidity;BME280_pressure;Samples;Min_cycle;Max_cycle;Signal;HPM_P1;HPM_P2
2023/06/26 00:01:50;;;;;;;6.47;5.63;;;23.90;95.50;;;;;;5046906;28;20111;-79
2023/06/26 00:04:15;;;;;;;6.60;5.22;;;23.90;95.50;;;;;;5052345;28;20488;-79
2023/06/26 00:06:41;;;;;;;6.40;5.65;;;23.80;95.70;;;;;;5053859;28;20049;-79
2023/06/26 00:09:07;;;;;;;6.30;5.70;;;23.80;95.70;;;;;;5031615;28;20045;-79
2023/06/26 00:11:33;;;;;;;6.68;5.97;;;23.70;95.90;;;;;;5047849;28;20408;-79
2023/06/26 00:14:02;;;;;;;7.40;6.00;;;23.70;96.00;;;;;;5048421;28;20044;-79
2023/06/26 00:16:28;;;;;;;7.68;5.88;;;23.70;96.10;;;;;;5031271;28;20041;-79
2023/06/26 00:18:54;;;;;;;8.40;5.75;;;23.70;96.10;;;;;;5047627;28;20059;-79
2023/06/26 00:21:19;;;;;;;6.53;5.80;;;23.70;96.10;;;;;;5048234;28;20037;-79
2023/06/26 00:23:46;;;;;;;6.47;5.80;;;23.70;96.20;;;;;;5048722;28;20500;-79
2023/06/26 00:26:12;;;;;;;7.28;5.53;;;23.70;96.20;;;;;;5048401;28;20041;-79
2023/06/26 00:28:37;;;;;;;6.55;5.85;;;23.70;96.10;;;;;;5047720;28;20060;-79
2023/06/26 00:31:03;;;;;;;6.95;6.25;;;23.70;96.20;;;;;;5049325;28;20036;-79
2023/06/26 00:33:28;;;;;;;6.57;5.97;;;23.60;96.40;;;;;;5047795;28;20098;-79
2023/06/26 00:35:54;;;;;;;6.22;5.60;;;23.60;96.30;;;;;;5048030;28;20037;-79
2023/06/26 00:38:20;;;;;;;7.07;5.97;;;23.60;96.40;;;;;;5048563;28;20455;-79
2023/06/26 00:40:45;;;;;;;7.20;6.10;;;23.60;96.40;;;;;;5048283;28;20029;-79
2023/06/26 00:43:11;;;;;;;6.78;6.07;;;23.50;96.60;;;;;;5048869;28;20079;-79
2023/06/26 00:45:36;;;;;;;7.13;6.38;;;23.50;96.40;;;;;;5048523;28;20492;-78
2023/06/26 00:48:03;;;;;;;6.70;6.03;;;23.50;96.30;;;;;;5041045;28;20036;-79
2023/06/26 00:50:28;;;;;;;8.32;6.07;;;23.50;96.30;;;;;;5049229;28;20037;-79
2023/06/26 00:53:00;;;;;;;8.43;6.00;;;23.50;96.30;;;;;;5065776;28;20040;-79
2023/06/26 00:55:26;;;;;;;6.47;5.88;;;23.40;96.20;;;;;;5065865;28;20056;-78
2023/06/26 00:57:51;;;;;;;6.90;6.20;;;23.50;96.40;;;;;;5065838;28;20107;-78
2023/06/26 01:00:17;;;;;;;8.05;6.97;;;23.40;96.50;;;;;;5032582;28;20520;-79
2023/06/26 01:02:43;;;;;;;6.88;6.20;;;23.40;96.40;;;;;;5048962;28;20068;-79
2023/06/26 01:05:12;;;;;;;9.52;6.50;;;23.30;96.50;;;;;;5052909;28;20437;-79
2023/06/26 01:07:39;;;;;;;6.90;6.07;;;23.30;96.70;;;;;;5053113;28;20044;-78
2023/06/26 01:10:05;;;;;;;7.60;6.50;;;23.30;96.60;;;;;;5052674;28;20136;-79
2023/06/26 01:12:32;;;;;;;7.13;6.40;;;23.20;96.70;;;;;;5036113;28;20348;-78
2023/06/26 01:14:59;;;;;;;7.03;6.32;;;23.20;96.90;;;;;;5052476;28;20566;-78
2023/06/26 01:17:27;;;;;;;7.70;6.53;;;23.20;97.00;;;;;;5052659;28;20080;-79
2023/06/26 01:19:53;;;;;;;7.85;7.05;;;23.10;97.00;;;;;;5052649;28;20045;-79
2023/06/26 01:22:31;;;;;;;7.13;6.43;;;23.10;97.00;;;;;;5052381;28;20135;-78
2023/06/26 01:25:12;;;;;;;7.97;6.38;;;23.10;97.20;;;;;;5052819;28;20045;-78
2023/06/26 01:27:38;;;;;;;10.13;6.90;;;23.10;97.20;;;;;;5051447;28;20488;-78
2023/06/26 01:30:06;;;;;;;8.13;7.15;;;23.00;97.30;;;;;;5035825;28;20125;-78
2023/06/26 01:32:32;;;;;;;7.63;6.65;;;23.00;97.30;;;;;;5052014;28;20041;-79
2023/06/26 01:34:59;;;;;;;8.00;7.07;;;23.00;97.40;;;;;;5052302;28;20504;-79
2023/06/26 01:37:25;;;;;;;7.20;6.50;;;22.90;97.50;;;;;;5052082;28;20566;-78
2023/06/26 01:39:50;;;;;;;8.55;6.85;;;22.90;97.60;;;;;;5052418;28;20041;-79
2023/06/26 01:42:16;;;;;;;6.90;6.20;;;22.90;97.60;;;;;;5035125;28;20362;-79
2023/06/26 01:44:46;;;;;;;7.65;6.85;;;22.90;97.80;;;;;;5052128;28;20412;-79
2023/06/26 01:47:17;;;;;;;7.43;6.70;;;22.80;97.90;;;;;;5035402;28;20089;-79
2023/06/26 01:49:51;;;;;;;7.80;7.00;;;22.80;98.00;;;;;;5052030;28;20415;-79
2023/06/26 01:52:39;;;;;;;9.90;7.20;;;22.80;98.20;;;;;;5051981;28;20052;-79
2023/06/26 01:55:27;;;;;;;8.52;7.07;;;22.80;98.40;;;;;;5051818;28;20037;-78
2023/06/26 01:57:56;;;;;;;8.10;6.97;;;22.70;98.60;;;;;;5052102;28;20041;-79
2023/06/26 02:00:23;;;;;;;7.95;6.50;;;22.70;98.50;;;;;;5052270;28;20408;-79
2023/06/26 02:02:49;;;;;;;8.18;7.38;;;22.60;98.60;;;;;;5051542;28;20048;-79
2023/06/26 02:05:14;;;;;;;7.90;7.13;;;22.60;98.80;;;;;;5051726;28;20036;-78
2023/06/26 02:07:40;;;;;;;8.65;7.75;;;22.60;99.00;;;;;;5051598;28;20037;-79
2023/06/26 02:10:06;;;;;;;7.70;7.00;;;22.50;99.00;;;;;;5051549;28;20033;-78
2023/06/26 02:12:31;;;;;;;10.90;7.65;;;22.50;99.20;;;;;;5051167;28;20045;-78
2023/06/26 02:14:57;;;;;;;8.60;7.75;;;22.40;99.20;;;;;;5051534;28;20099;-79
2023/06/26 02:17:22;;;;;;;9.43;8.13;;;22.40;99.40;;;;;;5051333;28;20048;-78
2023/06/26 02:19:48;;;;;;;9.00;8.10;;;22.30;99.50;;;;;;5051444;28;20407;-78
2023/06/26 02:22:15;;;;;;;9.02;8.00;;;22.30;99.70;;;;;;5051250;28;20167;-78
2023/06/26 02:24:41;;;;;;;8.50;7.55;;;22.30;99.90;;;;;;5051509;28;20041;-78
2023/06/26 02:27:06;;;;;;;8.77;7.93;;;22.20;99.90;;;;;;5051142;28;20040;-78
2023/06/26 02:29:32;;;;;;;8.43;7.63;;;22.20;99.90;;;;;;5051313;28;20411;-78
2023/06/26 02:31:57;;;;;;;8.80;7.90;;;22.20;99.90;;;;;;5050950;28;20044;-78
2023/06/26 02:34:23;;;;;;;8.52;7.72;;;22.10;99.90;;;;;;5051004;28;20036;-78
2023/06/26 02:36:49;;;;;;;8.80;7.85;;;22.10;99.90;;;;;;5050957;28;20087;-79
2023/06/26 02:39:14;;;;;;;9.45;8.00;;;22.10;99.90;;;;;;5050976;28;20078;-78
2023/06/26 02:41:40;;;;;;;9.82;8.18;;;22.10;99.90;;;;;;5034118;28;20033;-78
2023/06/26 02:44:06;;;;;;;8.43;7.57;;;22.10;99.90;;;;;;5051102;28;20064;-78
2023/06/26 02:46:33;;;;;;;9.10;8.20;;;22.10;99.90;;;;;;5050813;28;20519;-78
2023/06/26 02:48:59;;;;;;;9.27;8.38;;;22.00;99.90;;;;;;5051175;28;20064;-78
2023/06/26 02:51:25;;;;;;;11.55;9.10;;;22.00;99.90;;;;;;5050913;28;20487;-78
2023/06/26 02:53:50;;;;;;;9.55;8.63;;;22.00;99.90;;;;;;5050848;28;20056;-78
2023/06/26 02:56:16;;;;;;;12.00;9.40;;;22.00;99.90;;;;;;5049358;28;20045;-77
2023/06/26 02:58:41;;;;;;;9.73;8.75;;;22.00;99.90;;;;;;5050148;28;20040;-78
2023/06/26 03:01:07;;;;;;;10.25;8.50;;;21.90;99.90;;;;;;5050959;28;20040;-78
2023/06/26 03:03:40;;;;;;;9.40;8.50;;;21.90;99.90;;;;;;5050341;28;20120;-77
2023/06/26 03:06:07;;;;;;;10.43;8.38;;;21.90;99.90;;;;;;5050732;28;20041;-78
2023/06/26 03:08:32;;;;;;;9.20;8.30;;;21.90;99.90;;;;;;5050596;28;20527;-77
2023/06/26 03:10:58;;;;;;;9.63;8.18;;;21.80;99.90;;;;;;5050680;28;20124;-78
2023/06/26 03:13:23;;;;;;;9.45;8.15;;;21.80;99.90;;;;;;5050205;28;20178;-78
2023/06/26 03:15:49;;;;;;;11.00;8.40;;;21.80;99.90;;;;;;5050379;28;20033;-77
2023/06/26 03:18:14;;;;;;;9.10;8.20;;;21.80;99.90;;;;;;5050680;28;20504;-77
2023/06/26 03:20:40;;;;;;;9.40;8.48;;;21.80;99.90;;;;;;5050098;28;20117;-77
2023/06/26 03:23:06;;;;;;;9.18;8.27;;;21.80;99.90;;;;;;5050070;28;20432;-78
2023/06/26 03:25:31;;;;;;;9.65;8.32;;;21.80;99.90;;;;;;5050096;28;20085;-77
2023/06/26 03:27:57;;;;;;;9.43;8.52;;;21.70;99.90;;;;;;5050108;28;20075;-77
2023/06/26 03:30:22;;;;;;;9.85;8.40;;;21.80;99.90;;;;;;5050140;28;20033;-78
2023/06/26 03:32:48;;;;;;;11.60;9.45;;;21.80;99.90;;;;;;5049700;28;20048;-77
2023/06/26 03:35:14;;;;;;;11.63;9.52;;;21.80;99.90;;;;;;5050338;28;20413;-77
2023/06/26 03:37:40;;;;;;;9.85;8.75;;;21.70;99.90;;;;;;5049881;28;20106;-77
2023/06/26 03:40:06;;;;;;;12.02;8.73;;;21.80;99.90;;;;;;5050030;28;20540;-77
2023/06/26 03:42:32;;;;;;;9.60;8.70;;;21.80;99.90;;;;;;5049479;28;20033;-77
2023/06/26 03:44:57;;;;;;;9.40;8.40;;;21.80;99.90;;;;;;5045375;28;20174;-77
2023/06/26 03:47:23;;;;;;;9.45;8.38;;;21.80;99.90;;;;;;5047625;28;20415;-77
2023/06/26 03:49:48;;;;;;;9.90;8.15;;;21.90;99.90;;;;;;5049115;28;20041;-77
2023/06/26 03:52:14;;;;;;;8.93;7.78;;;21.90;99.90;;;;;;5049406;28;20052;-77
2023/06/26 03:54:39;;;;;;;9.13;8.23;;;22.00;99.90;;;;;;5049039;28;20115;-77
2023/06/26 03:57:05;;;;;;;11.13;8.65;;;21.90;99.90;;;;;;5045991;28;20033;-77
2023/06/26 03:59:31;;;;;;;11.73;8.07;;;21.90;99.90;;;;;;5048734;28;20033;-77
2023/06/26 04:01:56;;;;;;;10.13;8.75;;;21.90;99.90;;;;;;5047986;28;20052;-78
2023/06/26 04:04:22;;;;;;;9.43;8.43;;;21.90;99.90;;;;;;5048258;28;20033;-77
2023/06/26 04:06:47;;;;;;;8.98;8.05;;;21.90;99.90;;;;;;5048784;28;20045;-77
2023/06/26 04:09:13;;;;;;;9.65;8.48;;;21.90;99.90;;;;;;5047988;28;20538;-77
2023/06/26 04:11:39;;;;;;;10.93;8.07;;;21.90;99.90;;;;;;5047762;28;20037;-78
2023/06/26 04:14:04;;;;;;;9.05;7.78;;;21.90;99.90;;;;;;5048434;28;20036;-77
2023/06/26 04:16:30;;;;;;;8.93;8.02;;;21.90;99.90;;;;;;5048500;28;20037;-77
2023/06/26 04:18:56;;;;;;;14.70;7.78;;;21.90;99.90;;;;;;5041459;28;20048;-77
2023/06/26 04:21:24;;;;;;;10.02;7.50;;;21.90;99.90;;;;;;5047570;28;20052;-78
2023/06/26 04:23:50;;;;;;;10.70;7.95;;;21.90;99.90;;;;;;5049041;28;20045;-77
2023/06/26 04:26:16;;;;;;;8.98;7.50;;;22.00;99.90;;;;;;5049127;28;20048;-77
2023/06/26 04:28:42;;;;;;;9.15;7.28;;;22.10;99.90;;;;;;5066281;28;20045;-77
2023/06/26 04:31:08;;;;;;;9.75;7.97;;;22.20;99.90;;;;;;5032924;28;20045;-77
2023/06/26 04:33:36;;;;;;;12.70;7.85;;;22.30;99.90;;;;;;5049064;28;20416;-77
2023/06/26 04:36:03;;;;;;;9.23;7.57;;;22.30;99.90;;;;;;5049498;28;20045;-78
2023/06/26 04:38:29;;;;;;;9.60;7.72;;;22.30;99.90;;;;;;5050244;28;20051;-77
2023/06/26 04:40:55;;;;;;;9.40;7.40;;;22.30;99.90;;;;;;5052843;28;20072;-78
2023/06/26 04:43:21;;;;;;;10.02;7.25;;;22.30;99.90;;;;;;5052422;28;20041;-78
2023/06/26 04:45:46;;;;;;;10.88;7.80;;;22.30;99.90;;;;;;5053541;28;20427;-77
2023/06/26 04:48:12;;;;;;;10.43;7.85;;;22.30;99.90;;;;;;5053231;28;20060;-77
2023/06/26 04:50:37;;;;;;;10.52;6.88;;;22.30;99.90;;;;;;5053141;28;20112;-77
2023/06/26 04:53:03;;;;;;;10.30;7.40;;;22.30;99.90;;;;;;5053159;28;20507;-77
2023/06/26 04:55:29;;;;;;;10.07;7.38;;;22.30;99.90;;;;;;5052832;28;20070;-78
2023/06/26 04:57:54;;;;;;;9.20;7.25;;;22.10;99.90;;;;;;5052837;28;20116;-78
2023/06/26 05:00:20;;;;;;;12.30;6.82;;;22.10;99.90;;;;;;5052176;28;20041;-77
2023/06/26 05:02:46;;;;;;;13.00;6.95;;;22.00;99.90;;;;;;5052827;28;20032;-78
2023/06/26 05:05:11;;;;;;;10.98;7.32;;;22.00;99.90;;;;;;5052867;28;20079;-77
2023/06/26 05:07:37;;;;;;;13.95;7.63;;;21.90;99.90;;;;;;5053049;28;20376;-77
2023/06/26 05:10:03;;;;;;;16.60;8.07;;;21.80;99.90;;;;;;5052850;28;20040;-77
2023/06/26 05:12:29;;;;;;;14.48;8.85;;;21.70;99.90;;;;;;5053721;28;20501;-78
2023/06/26 05:14:54;;;;;;;18.08;9.77;;;21.60;99.90;;;;;;5052625;28;20041;-76
2023/06/26 05:17:20;;;;;;;15.52;8.60;;;21.50;99.90;;;;;;5052513;28;20048;-76
2023/06/26 05:19:46;;;;;;;12.57;8.13;;;21.40;99.90;;;;;;5052913;28;20041;-79
2023/06/26 05:22:13;;;;;;;18.63;9.20;;;21.50;99.90;;;;;;5051786;28;20048;-80
2023/06/26 05:24:39;;;;;;;18.30;9.15;;;21.50;99.90;;;;;;5053765;28;20033;-79
2023/06/26 05:27:06;;;;;;;13.77;9.50;;;21.50;99.90;;;;;;5068999;28;20047;-77
2023/06/26 05:29:32;;;;;;;14.63;9.40;;;21.40;99.90;;;;;;5051235;28;20170;-80
2023/06/26 05:31:58;;;;;;;18.73;9.02;;;21.20;99.90;;;;;;5034419;28;20051;-78
2023/06/26 05:34:25;;;;;;;16.17;8.43;;;21.00;99.90;;;;;;5050441;28;20497;-77
2023/06/26 05:36:51;;;;;;;11.73;6.65;;;20.80;99.90;;;;;;5051548;28;20041;-78
2023/06/26 05:39:18;;;;;;;11.57;6.55;;;20.70;99.90;;;;;;5052249;28;20451;-77
2023/06/26 05:41:47;;;;;;;14.25;6.40;;;20.60;99.90;;;;;;5051487;28;20519;-77
2023/06/26 05:44:12;;;;;;;16.25;6.65;;;20.50;99.90;;;;;;5052149;28;20045;-78
2023/06/26 05:46:38;;;;;;;15.98;6.43;;;20.50;99.90;;;;;;5048074;28;20043;-77
2023/06/26 05:49:03;;;;;;;14.82;6.65;;;20.40;99.90;;;;;;5051518;28;20092;-77
2023/06/26 05:51:29;;;;;;;13.70;6.85;;;20.30;99.90;;;;;;5051681;28;20459;-79
2023/06/26 05:53:55;;;;;;;15.27;7.00;;;20.30;99.90;;;;;;5043206;28;20037;-77
2023/06/26 05:56:21;;;;;;;10.50;6.15;;;20.20;99.90;;;;;;5048896;28;20041;-77
2023/06/26 05:58:47;;;;;;;12.15;6.10;;;20.30;99.90;;;;;;5051195;28;20040;-77
2023/06/26 06:01:13;;;;;;;13.18;5.47;;;20.20;99.90;;;;;;5051744;28;20071;-78
2023/06/26 06:03:39;;;;;;;13.50;5.72;;;20.20;99.90;;;;;;5051360;28;20068;-77
2023/06/26 06:06:05;;;;;;;13.02;4.75;;;20.10;99.90;;;;;;5051588;28;20124;-77
2023/06/26 06:08:31;;;;;;;10.85;5.07;;;20.30;99.90;;;;;;5051853;28;20119;-76
2023/06/26 06:10:56;;;;;;;14.05;4.70;;;20.20;99.90;;;;;;5034817;28;20049;-78
2023/06/26 06:13:22;;;;;;;11.13;4.40;;;20.20;99.90;;;;;;5051444;28;20048;-78
2023/06/26 06:15:47;;;;;;;14.75;4.45;;;20.30;99.90;;;;;;5067201;28;20048;-76
2023/06/26 06:18:13;;;;;;;14.68;4.70;;;20.40;99.90;;;;;;5049162;28;20102;-77
2023/06/26 06:20:38;;;;;;;13.40;4.65;;;20.40;99.90;;;;;;5047377;28;20041;-76
2023/06/26 06:23:04;;;;;;;14.57;5.40;;;20.40;99.90;;;;;;5044560;28;20044;-77
2023/06/26 06:25:30;;;;;;;12.77;4.40;;;20.50;99.90;;;;;;5049395;28;20056;-78
2023/06/26 06:27:55;;;;;;;10.30;3.67;;;20.50;99.90;;;;;;5049373;28;20140;-77
2023/06/26 06:30:21;;;;;;;12.63;4.05;;;20.60;99.90;;;;;;5049657;28;20054;-75
2023/06/26 06:32:50;;;;;;;9.77;3.35;;;20.70;99.90;;;;;;5050719;28;20044;-78
2023/06/26 06:35:17;;;;;;;10.07;3.85;;;20.70;99.90;;;;;;5050995;28;20045;-78
2023/06/26 06:37:42;;;;;;;13.05;3.60;;;20.90;99.90;;;;;;5062466;28;20079;-77
2023/06/26 06:40:10;;;;;;;11.65;3.25;;;21.00;99.90;;;;;;5051143;28;20041;-77
2023/06/26 06:42:35;;;;;;;11.15;3.55;;;21.00;99.90;;;;;;5052041;28;20111;-75
2023/06/26 06:45:02;;;;;;;11.45;3.40;;;21.00;99.90;;;;;;5049882;28;20497;-77
2023/06/26 06:47:28;;;;;;;9.55;3.08;;;21.20;99.90;;;;;;5043679;28;20045;-77
2023/06/26 06:49:54;;;;;;;10.15;3.33;;;21.30;99.90;;;;;;5056677;28;20094;-76
2023/06/26 06:52:19;;;;;;;10.50;3.83;;;21.40;99.90;;;;;;5060550;28;20072;-76
2023/06/26 06:54:58;;;;;;;14.45;3.45;;;21.50;99.90;;;;;;5050186;28;20040;-77
2023/06/26 06:57:24;;;;;;;8.63;2.78;;;21.40;99.90;;;;;;5049541;28;20049;-78
2023/06/26 06:59:50;;;;;;;10.32;3.20;;;21.60;99.90;;;;;;5055384;28;20040;-75
2023/06/26 07:02:19;;;;;;;9.95;3.53;;;21.60;99.90;;;;;;5049543;28;20112;-77
2023/06/26 07:04:45;;;;;;;13.02;3.45;;;21.50;99.90;;;;;;5021726;28;20072;-76
2023/06/26 07:07:13;;;;;;;7.65;2.47;;;21.60;99.90;;;;;;5048873;28;20044;-77
2023/06/26 07:09:39;;;;;;;10.35;3.25;;;21.60;99.90;;;;;;5048390;28;20136;-77
2023/06/26 07:12:05;;;;;;;7.40;2.63;;;21.50;99.90;;;;;;5062367;28;20048;-79
2023/06/26 07:14:30;;;;;;;8.27;2.65;;;21.60;99.90;;;;;;5048886;28;20035;-81
2023/06/26 07:16:56;;;;;;;9.80;2.72;;;21.50;99.90;;;;;;5049997;28;20527;-78
2023/06/26 07:19:21;;;;;;;9.18;2.67;;;21.80;99.90;;;;;;5054339;28;20129;-78
2023/06/26 07:21:47;;;;;;;10.35;3.22;;;21.80;99.90;;;;;;5025542;28;20116;-78
2023/06/26 07:24:13;;;;;;;12.27;2.53;;;21.60;99.90;;;;;;5055481;28;20045;-77
2023/06/26 07:26:38;;;;;;;8.85;2.30;;;21.60;99.90;;;;;;5030716;28;20091;-78
2023/06/26 07:29:04;;;;;;;8.38;2.20;;;21.70;99.90;;;;;;5043974;28;20041;-77
2023/06/26 07:31:30;;;;;;;6.93;2.30;;;21.60;99.90;;;;;;5043592;28;20044;-77
2023/06/26 07:33:56;;;;;;;8.38;2.05;;;21.80;99.90;;;;;;5030589;28;20045;-79
2023/06/26 07:36:21;;;;;;;9.50;2.28;;;21.90;99.90;;;;;;5049903;28;20512;-77
2023/06/26 07:38:47;;;;;;;8.95;2.15;;;21.80;99.90;;;;;;5049522;28;20052;-78
2023/06/26 07:41:12;;;;;;;5.00;1.77;;;21.90;99.90;;;;;;5031523;28;20048;-78
2023/06/26 07:43:38;;;;;;;5.75;1.85;;;21.90;99.90;;;;;;5046432;28;20033;-76
2023/06/26 07:46:03;;;;;;;7.35;2.00;;;22.00;99.90;;;;;;5048560;28;20045;-77
2023/06/26 07:48:29;;;;;;;5.72;1.50;;;22.00;99.90;;;;;;5064255;28;20040;-78
2023/06/26 07:50:54;;;;;;;5.20;2.10;;;22.10;99.90;;;;;;5058458;28;20518;-76
2023/06/26 07:53:20;;;;;;;6.70;1.83;;;22.00;99.90;;;;;;5049155;28;20501;-77
2023/06/26 07:55:45;;;;;;;6.68;1.95;;;21.90;99.90;;;;;;5048726;28;20041;-78
2023/06/26 07:58:11;;;;;;;6.80;2.00;;;22.10;99.90;;;;;;5049154;28;20041;-76
2023/06/26 08:00:36;;;;;;;5.88;1.92;;;21.90;99.90;;;;;;5048242;28;20090;-77
2023/06/26 08:03:02;;;;;;;5.78;1.70;;;22.00;99.90;;;;;;5046733;28;20056;-78
2023/06/26 08:05:28;;;;;;;5.90;1.73;;;22.30;99.90;;;;;;5047318;28;20041;-77
2023/06/26 08:07:53;;;;;;;5.13;1.70;;;22.10;99.90;;;;;;5047223;28;20381;-78
2023/06/26 08:10:19;;;;;;;4.65;1.55;;;21.90;99.90;;;;;;5047333;28;20036;-78
2023/06/26 08:12:45;;;;;;;6.18;1.90;;;21.70;99.90;;;;;;5048515;28;20032;-77
2023/06/26 08:15:11;;;;;;;5.13;1.58;;;21.70;99.90;;;;;;5045553;28;20562;-77
2023/06/26 08:17:38;;;;;;;7.25;1.90;;;21.80;99.90;;;;;;5060633;28;20510;-76
2023/06/26 08:20:04;;;;;;;5.25;2.08;;;21.90;99.90;;;;;;5055361;28;20033;-79
2023/06/26 08:22:30;;;;;;;5.10;1.70;;;22.00;99.90;;;;;;5044096;28;20032;-77
2023/06/26 08:24:56;;;;;;;5.40;1.77;;;21.90;99.90;;;;;;5059974;28;20560;-76
2023/06/26 08:27:21;;;;;;;6.00;1.90;;;21.80;99.90;;;;;;5053274;28;20488;-76
2023/06/26 08:29:47;;;;;;;5.07;1.70;;;21.80;99.90;;;;;;5053271;28;20486;-76
2023/06/26 08:32:12;;;;;;;7.97;1.65;;;21.90;99.90;;;;;;5050683;28;20099;-77
2023/06/26 08:34:38;;;;;;;6.35;1.85;;;22.10;99.90;;;;;;5036036;28;20049;-76
2023/06/26 08:37:04;;;;;;;6.20;1.80;;;22.30;99.90;;;;;;5052782;28;20045;-77
2023/06/26 08:39:29;;;;;;;6.88;1.60;;;22.50;99.90;;;;;;5036673;28;20107;-77
2023/06/26 08:41:55;;;;;;;4.88;2.10;;;22.60;99.90;;;;;;5051455;28;20044;-76
2023/06/26 08:44:24;;;;;;;7.88;2.03;;;22.20;99.90;;;;;;5035703;28;20037;-75
2023/06/26 08:46:50;;;;;;;8.60;2.22;;;22.00;99.90;;;;;;5052777;28;20052;-76
2023/06/26 08:49:25;;;;;;;4.68;2.00;;;22.00;99.90;;;;;;5054380;28;20048;-76
2023/06/26 08:52:02;;;;;;;3.00;1.25;;;22.30;99.90;;;;;;5052300;28;20045;-77
2023/06/26 08:54:34;;;;;;;4.38;1.83;;;22.70;99.90;;;;;;5048680;28;20040;-76
2023/06/26 08:57:01;;;;;;;4.80;2.03;;;22.50;99.90;;;;;;5057474;28;20044;-76
2023/06/26 08:59:28;;;;;;;6.55;2.00;;;22.30;99.90;;;;;;5050588;28;20036;-77
2023/06/26 09:01:54;;;;;;;4.03;2.10;;;22.20;99.90;;;;;;5050642;28;20174;-75
2023/06/26 09:04:19;;;;;;;5.50;1.92;;;22.10;99.90;;;;;;5047065;28;20116;-76
2023/06/26 09:06:45;;;;;;;7.65;2.30;;;22.10;99.90;;;;;;5049472;28;20041;-76
2023/06/26 09:09:10;;;;;;;5.75;1.80;;;22.20;99.90;;;;;;5052291;28;20044;-76
2023/06/26 09:11:36;;;;;;;5.40;2.30;;;22.40;99.90;;;;;;5048207;28;20037;-77
2023/06/26 09:14:04;;;;;;;4.10;1.80;;;22.60;99.90;;;;;;5046615;28;20043;-76
2023/06/26 09:16:30;;;;;;;5.30;1.80;;;22.70;99.90;;;;;;5047275;28;20131;-77
2023/06/26 09:18:56;;;;;;;3.78;1.63;;;22.80;99.90;;;;;;5056102;28;20123;-77
2023/06/26 09:21:22;;;;;;;4.50;1.58;;;23.00;99.90;;;;;;5050321;28;20057;-78
2023/06/26 09:23:49;;;;;;;2.97;1.55;;;23.30;99.90;;;;;;5050618;28;20516;-77
2023/06/26 09:26:16;;;;;;;3.33;1.80;;;23.50;99.90;;;;;;5057124;28;20413;-76
2023/06/26 09:28:43;;;;;;;3.45;1.92;;;23.50;99.90;;;;;;5052020;28;20038;-76
2023/06/26 09:31:10;;;;;;;4.03;2.03;;;23.60;99.90;;;;;;5050310;28;20095;-75
2023/06/26 09:33:36;;;;;;;5.70;1.73;;;23.10;99.90;;;;;;5049267;28;20037;-74
2023/06/26 09:36:05;;;;;;;8.38;2.20;;;22.50;99.90;;;;;;5047385;28;20523;-78
2023/06/26 09:38:31;;;;;;;4.80;2.08;;;22.10;99.90;;;;;;5051140;28;20079;-77
2023/06/26 09:40:57;;;;;;;5.03;1.90;;;21.90;99.90;;;;;;5051559;28;20192;-76
2023/06/26 09:43:23;;;;;;;8.40;2.45;;;22.20;99.90;;;;;;5051504;28;20044;-77
2023/06/26 09:45:48;;;;;;;6.88;2.25;;;22.40;99.90;;;;;;5044328;28;20072;-76
2023/06/26 09:48:14;;;;;;;8.15;2.33;;;22.50;99.90;;;;;;5044754;28;20072;-76
2023/06/26 09:50:42;;;;;;;6.28;2.53;;;22.30;99.90;;;;;;5054805;28;20082;-77
2023/06/26 09:53:13;;;;;;;6.68;2.35;;;22.40;99.90;;;;;;5048199;28;20549;-76
2023/06/26 09:55:40;;;;;;;8.73;2.28;;;22.50;99.90;;;;;;5049184;28;20037;-74
2023/06/26 09:58:06;;;;;;;4.80;2.15;;;22.30;99.90;;;;;;5049034;28;20037;-75
2023/06/26 10:00:32;;;;;;;7.32;2.75;;;22.40;99.90;;;;;;5058407;28;20052;-77
2023/06/26 10:03:01;;;;;;;5.20;2.35;;;22.50;99.90;;;;;;5043485;28;20075;-78
2023/06/26 10:05:27;;;;;;;4.93;2.30;;;22.70;99.90;;;;;;5058064;28;20394;-77
2023/06/26 10:07:54;;;;;;;4.97;2.25;;;23.20;99.90;;;;;;5048238;28;20047;-76
2023/06/26 10:10:23;;;;;;;5.88;2.80;;;23.40;99.90;;;;;;5050944;28;20047;-77
2023/06/26 10:12:54;;;;;;;5.95;2.00;;;23.80;99.90;;;;;;5046442;28;20120;-77
2023/06/26 10:15:21;;;;;;;6.65;2.20;;;24.10;99.90;;;;;;5068350;28;20404;-77
2023/06/26 10:17:49;;;;;;;9.07;2.33;;;24.30;99.90;;;;;;5049419;28;20053;-76
2023/06/26 10:20:15;;;;;;;7.25;2.00;;;24.40;99.90;;;;;;5044215;28;20056;-76
2023/06/26 10:22:45;;;;;;;4.93;2.20;;;24.30;99.90;;;;;;5046874;28;20036;-77
2023/06/26 10:25:12;;;;;;;4.88;2.47;;;23.90;99.90;;;;;;5050548;28;20424;-75
2023/06/26 10:27:44;;;;;;;5.80;2.20;;;23.40;99.90;;;;;;5040600;28;20045;-76
2023/06/26 10:30:17;;;;;;;6.22;2.15;;;23.40;99.90;;;;;;5046423;28;20191;-77
2023/06/26 10:32:43;;;;;;;4.50;2.00;;;23.40;99.90;;;;;;5048714;28;20049;-75
2023/06/26 10:35:10;;;;;;;4.82;2.00;;;23.30;99.90;;;;;;5049686;28;20063;-76
2023/06/26 10:37:47;;;;;;;5.07;2.30;;;23.30;99.90;;;;;;5032244;28;20041;-76
2023/06/26 10:40:20;;;;;;;7.00;2.63;;;23.30;99.90;;;;;;5042405;28;20044;-77
2023/06/26 10:42:46;;;;;;;3.72;2.17;;;23.60;99.90;;;;;;5050185;28;20040;-76
2023/06/26 10:45:21;;;;;;;4.68;2.40;;;24.10;99.90;;;;;;5048791;28;20067;-76
2023/06/26 10:47:48;;;;;;;7.05;2.60;;;24.20;99.90;;;;;;5048031;28;20128;-75
2023/06/26 10:50:31;;;;;;;8.35;2.60;;;23.90;99.90;;;;;;5051794;28;20045;-75
2023/06/26 10:53:15;;;;;;;5.20;2.60;;;24.10;99.90;;;;;;5046484;28;20048;-77
2023/06/26 10:55:43;;;;;;;6.82;2.28;;;24.10;99.90;;;;;;5053748;28;20056;-75
2023/06/26 10:58:29;;;;;;;4.68;2.33;;;23.50;99.90;;;;;;5046408;28;20044;-76
2023/06/26 11:01:20;;;;;;;5.75;2.22;;;23.40;99.90;;;;;;5050435;28;20141;-75
2023/06/26 11:03:48;;;;;;;6.32;2.20;;;23.30;99.90;;;;;;5048026;28;20121;-76
2023/06/26 11:06:23;;;;;;;8.43;1.85;;;23.50;99.90;;;;;;5033810;28;20044;-77
2023/06/26 11:09:04;;;;;;;5.85;1.75;;;23.50;99.90;;;;;;5050504;28;20513;-78
2023/06/26 11:11:58;;;;;;;5.53;2.20;;;23.30;99.80;;;;;;5049257;28;20431;-76
2023/06/26 11:14:25;;;;;;;5.85;2.00;;;23.70;99.90;;;;;;5061387;28;20083;-77
2023/06/26 11:16:50;;;;;;;3.60;1.70;;;23.80;99.80;;;;;;5047211;28;20072;-76
2023/06/26 11:19:20;;;;;;;3.95;1.50;;;24.00;99.80;;;;;;5044179;28;20683;-75
2023/06/26 11:21:46;;;;;;;5.20;1.70;;;24.40;99.00;;;;;;5055200;28;20072;-76
2023/06/26 11:24:12;;;;;;;4.82;1.70;;;24.80;99.60;;;;;;5059371;28;20075;-76
2023/06/26 11:26:42;;;;;;;8.18;1.40;;;24.80;99.00;;;;;;5048028;28;20531;-75
2023/06/26 11:29:09;;;;;;;7.75;1.80;;;24.10;98.30;;;;;;5048489;28;20037;-77
2023/06/26 11:31:37;;;;;;;6.20;1.63;;;23.70;98.90;;;;;;5057908;28;20068;-75
2023/06/26 11:34:08;;;;;;;7.57;1.50;;;24.10;99.40;;;;;;5036543;28;20047;-76
2023/06/26 11:36:36;;;;;;;5.80;1.58;;;24.00;99.50;;;;;;5056945;28;20094;-74
2023/06/26 11:39:05;;;;;;;4.63;1.23;;;23.50;98.90;;;;;;5048204;28;20032;-77
2023/06/26 11:41:32;;;;;;;5.78;1.35;;;23.40;98.30;;;;;;5045062;28;20106;-78
2023/06/26 11:44:02;;;;;;;5.20;1.27;;;23.60;97.70;;;;;;5040040;28;20051;-77
2023/06/26 11:46:28;;;;;;;7.50;1.52;;;23.90;97.60;;;;;;5049362;28;20086;-75
2023/06/26 11:48:54;;;;;;;4.68;1.10;;;24.20;97.80;;;;;;5047630;28;20412;-75
2023/06/26 11:51:20;;;;;;;3.38;1.10;;;24.60;97.50;;;;;;5047798;28;20444;-76
2023/06/26 11:53:47;;;;;;;4.95;1.10;;;25.10;96.80;;;;;;5047125;28;20132;-77
2023/06/26 11:56:14;;;;;;;6.15;1.60;;;25.60;96.80;;;;;;5038848;28;20049;-78
2023/06/26 11:59:06;;;;;;;3.88;1.30;;;26.00;96.60;;;;;;5044508;28;20488;-76
2023/06/26 12:01:37;;;;;;;4.93;1.27;;;26.00;95.90;;;;;;5047981;28;20040;-77
2023/06/26 12:04:06;;;;;;;4.43;1.30;;;25.40;94.90;;;;;;5044003;28;20040;-75
2023/06/26 12:06:34;;;;;;;5.20;1.30;;;24.50;95.40;;;;;;5046946;28;20057;-77
2023/06/26 12:09:05;;;;;;;3.85;1.30;;;24.20;96.40;;;;;;5048298;28;20041;-75
2023/06/26 12:11:32;;;;;;;7.35;1.38;;;24.30;96.80;;;;;;5057137;28;20046;-75
2023/06/26 12:13:58;;;;;;;4.15;1.50;;;24.30;96.80;;;;;;5047820;28;20049;-77
2023/06/26 12:16:25;;;;;;;8.07;1.42;;;24.10;96.10;;;;;;5048596;28;20056;-74
2023/06/26 12:18:51;;;;;;;3.60;1.27;;;24.10;96.40;;;;;;5047395;28;20048;-76
2023/06/26 12:21:39;;;;;;;6.15;1.40;;;24.40;96.60;;;;;;5048044;28;20037;-75
2023/06/26 12:24:13;;;;;;;4.53;1.40;;;24.50;96.50;;;;;;5053816;28;20420;-74
2023/06/26 12:26:41;;;;;;;5.53;1.30;;;24.20;96.00;;;;;;5054834;28;20098;-76
2023/06/26 12:29:08;;;;;;;4.05;1.40;;;24.00;94.50;;;;;;5046966;28;20041;-76
2023/06/26 12:31:35;;;;;;;3.95;1.40;;;24.10;95.40;;;;;;5046433;28;20588;-76
2023/06/26 12:34:01;;;;;;;5.00;1.42;;;24.30;95.30;;;;;;5047010;28;20040;-75
2023/06/26 12:36:27;;;;;;;5.20;1.10;;;24.70;95.00;;;;;;5045887;28;20068;-74
2023/06/26 12:38:53;;;;;;;5.47;1.73;;;25.10;94.70;;;;;;5049194;28;20448;-75
2023/06/26 12:41:20;;;;;;;4.57;1.50;;;25.50;95.00;;;;;;5047595;28;20049;-76
2023/06/26 12:43:46;;;;;;;5.28;1.65;;;25.70;95.30;;;;;;5048179;28;20531;-79
2023/06/26 12:46:12;;;;;;;4.30;1.20;;;26.00;95.30;;;;;;5051819;28;20067;-79